Time;durP1;ratioP1;P1;durP2;ratioP2;P2;SDS_P1;SDS_P2;PMS_P1;PMS_P2;Temp;Humidity;BMP_temperature;BMP_pressure;BME280_temperature;BME280_humidity;BME280_pressure;Samples;Min_cycle;Max_cycle;Signal;HPM_P1;HPM_P2
2022/09/03 00:00:24;;;;;;;3.03;1.70;;;16.80;98.00;;;;;;5051118;28;20495;-71
2022/09/03 00:02:59;;;;;;;2.80;1.90;;;16.80;98.00;;;;;;5051030;28;20544;-70
2022/09/03 00:05:37;;;;;;;2.87;2.07;;;16.80;98.00;;;;;;5051202;28;20465;-72
2022/09/03 00:08:10;;;;;;;2.50;1.90;;;16.80;98.00;;;;;;5051043;28;20454;-71
2022/09/03 00:10:45;;;;;;;2.80;1.93;;;16.70;98.00;;;;;;5051015;28;20964;-73
2022/09/03 00:13:17;;;;;;;2.13;1.90;;;16.60;98.00;;;;;;5033969;28;20461;-72
2022/09/03 00:15:44;;;;;;;2.90;2.20;;;16.60;98.00;;;;;;5050988;28;20506;-72
2022/09/03 00:18:17;;;;;;;2.13;1.80;;;16.50;98.00;;;;;;5051090;28;20458;-72
2022/09/03 00:20:49;;;;;;;2.60;1.90;;;16.60;98.00;;;;;;5054262;28;20485;-71
2022/09/03 00:23:20;;;;;;;2.50;2.00;;;16.70;98.00;;;;;;5055293;28;20523;-71
2022/09/03 00:25:52;;;;;;;2.17;1.80;;;16.70;98.00;;;;;;5055080;28;20458;-71
2022/09/03 00:28:26;;;;;;;2.73;1.80;;;16.70;98.00;;;;;;5037358;28;20462;-72
2022/09/03 00:31:01;;;;;;;2.40;1.70;;;16.90;98.00;;;;;;5054776;28;20465;-72
2022/09/03 00:33:32;;;;;;;2.27;1.80;;;16.80;98.00;;;;;;5054977;28;20472;-73
2022/09/03 00:36:10;;;;;;;2.97;1.80;;;16.80;98.00;;;;;;5036768;28;20952;-72
2022/09/03 00:38:39;;;;;;;3.37;1.90;;;16.80;98.00;;;;;;5054811;28;20951;-70
2022/09/03 00:41:10;;;;;;;2.40;1.73;;;16.90;98.00;;;;;;5036923;28;20969;-71
2022/09/03 00:43:57;;;;;;;2.97;2.00;;;16.80;98.00;;;;;;5054856;28;20611;-72
2022/09/03 00:46:32;;;;;;;2.60;1.90;;;16.90;98.00;;;;;;5054577;28;20461;-71
2022/09/03 00:49:17;;;;;;;2.03;1.70;;;16.90;98.00;;;;;;5054411;28;21017;-72
2022/09/03 00:51:51;;;;;;;2.20;1.80;;;16.80;98.00;;;;;;5054417;28;20457;-71
2022/09/03 00:54:32;;;;;;;2.17;1.70;;;16.80;98.00;;;;;;5054622;28;21077;-71
2022/09/03 00:57:13;;;;;;;2.17;1.90;;;16.80;98.00;;;;;;5037605;28;20905;-71
2022/09/03 00:59:52;;;;;;;4.33;2.57;;;16.80;98.00;;;;;;5054430;28;20454;-73
2022/09/03 01:02:32;;;;;;;2.27;1.83;;;16.90;98.00;;;;;;5054542;28;20461;-73
2022/09/03 01:05:09;;;;;;;2.00;1.73;;;17.00;98.00;;;;;;5054498;28;20962;-72
2022/09/03 01:07:45;;;;;;;2.27;1.70;;;17.20;98.00;;;;;;5054618;28;20461;-72
2022/09/03 01:10:26;;;;;;;3.13;2.10;;;17.10;98.00;;;;;;5054070;28;20477;-71
2022/09/03 01:12:58;;;;;;;2.33;1.67;;;17.10;98.00;;;;;;5054256;28;20849;-71
2022/09/03 01:15:35;;;;;;;2.47;2.07;;;17.10;98.00;;;;;;5037120;28;20457;-71
2022/09/03 01:18:13;;;;;;;2.70;1.90;;;17.20;98.00;;;;;;5054413;28;20663;-72
2022/09/03 01:21:10;;;;;;;3.27;2.17;;;17.30;98.00;;;;;;5053994;28;20548;-71
2022/09/03 01:24:06;;;;;;;12.83;2.27;;;17.30;98.00;;;;;;5055120;28;20976;-72
2022/09/03 01:29:47;;;;;;;1.80;1.67;;;17.40;98.00;;;;;;5053182;28;20516;-72
2022/09/03 01:32:24;;;;;;;2.60;2.07;;;17.40;98.00;;;;;;5053860;28;20496;-72
2022/09/03 01:34:59;;;;;;;2.03;1.77;;;17.30;98.00;;;;;;5054445;28;20508;-71
2022/09/03 01:37:40;;;;;;;2.03;1.73;;;17.30;98.00;;;;;;5054603;28;20467;-71
2022/09/03 01:40:16;;;;;;;2.23;1.80;;;17.40;98.00;;;;;;5054971;28;21056;-72
2022/09/03 01:42:54;;;;;;;2.53;1.97;;;17.40;98.00;;;;;;5036601;28;20457;-71
2022/09/03 01:45:40;;;;;;;2.90;2.00;;;17.30;98.00;;;;;;5053604;28;20461;-71
2022/09/03 01:48:40;;;;;;;6.07;1.93;;;17.30;98.00;;;;;;5036853;28;20460;-74
2022/09/03 01:51:16;;;;;;;4.80;2.40;;;17.20;98.00;;;;;;5053318;28;20486;-71
2022/09/03 01:54:10;;;;;;;4.60;2.17;;;17.00;98.00;;;;;;5053590;28;20453;-73
2022/09/03 01:56:58;;;;;;;3.10;2.00;;;16.90;98.00;;;;;;5053428;28;20462;-73
2022/09/03 01:59:30;;;;;;;1.70;1.70;;;16.90;98.00;;;;;;5053755;28;20460;-71
2022/09/03 02:02:05;;;;;;;2.13;1.83;;;16.90;98.00;;;;;;5053937;28;20458;-70
2022/09/03 02:04:32;;;;;;;3.50;2.13;;;16.90;98.00;;;;;;5053497;28;20460;-72
2022/09/03 02:07:01;;;;;;;3.10;2.10;;;16.90;98.00;;;;;;5053071;28;20458;-73
2022/09/03 02:09:29;;;;;;;2.40;2.10;;;16.80;98.00;;;;;;5052828;28;20508;-71
2022/09/03 02:12:02;;;;;;;2.90;1.80;;;16.80;98.00;;;;;;5053201;28;20469;-72
2022/09/03 02:14:30;;;;;;;3.60;1.90;;;16.80;98.00;;;;;;5053107;28;20489;-71
2022/09/03 02:17:00;;;;;;;2.53;2.07;;;16.80;98.00;;;;;;5053378;28;20453;-73
2022/09/03 02:19:29;;;;;;;3.23;2.30;;;17.00;98.00;;;;;;5053476;28;20454;-71
2022/09/03 02:21:57;;;;;;;2.73;2.00;;;17.00;98.00;;;;;;5053068;28;20484;-71
2022/09/03 02:24:26;;;;;;;2.47;2.00;;;17.00;98.00;;;;;;5052968;28;20516;-72
2022/09/03 02:26:54;;;;;;;2.20;1.90;;;17.00;98.00;;;;;;5052857;28;20466;-73
2022/09/03 02:29:23;;;;;;;2.13;1.97;;;17.10;98.00;;;;;;5052783;28;20884;-73
2022/09/03 02:31:50;;;;;;;2.63;1.73;;;17.20;98.00;;;;;;5052509;28;20461;-71
2022/09/03 02:34:19;;;;;;;2.17;1.83;;;17.30;98.00;;;;;;5052668;28;20468;-72
2022/09/03 02:36:48;;;;;;;4.50;2.07;;;17.30;98.00;;;;;;5052460;28;20454;-72
2022/09/03 02:39:16;;;;;;;2.60;1.80;;;17.20;98.00;;;;;;5052710;28;20928;-72
2022/09/03 02:41:43;;;;;;;2.37;1.80;;;17.30;98.00;;;;;;5051735;28;20548;-73
2022/09/03 02:44:16;;;;;;;1.90;1.70;;;17.30;98.00;;;;;;5052059;28;21012;-71
2022/09/03 02:46:47;;;;;;;3.23;2.10;;;17.40;98.00;;;;;;5052406;28;20453;-71
2022/09/03 02:49:14;;;;;;;2.90;2.10;;;17.30;98.00;;;;;;5052103;28;20471;-71
2022/09/03 02:51:47;;;;;;;2.20;1.63;;;17.30;98.00;;;;;;5052120;28;20458;-71
2022/09/03 02:54:15;;;;;;;1.90;1.70;;;17.30;98.00;;;;;;5052127;28;20457;-72
2022/09/03 02:56:42;;;;;;;2.90;1.93;;;17.20;98.00;;;;;;5052073;28;20488;-71
2022/09/03 02:59:10;;;;;;;2.90;2.17;;;17.30;98.00;;;;;;5052075;28;21243;-72
2022/09/03 03:01:37;;;;;;;4.53;2.00;;;17.30;98.00;;;;;;5051973;28;20458;-71
2022/09/03 03:04:04;;;;;;;2.30;1.73;;;17.30;98.00;;;;;;5052011;28;20507;-72
2022/09/03 03:06:32;;;;;;;1.77;1.70;;;17.40;98.00;;;;;;5052011;28;20454;-71
2022/09/03 03:09:03;;;;;;;2.70;2.20;;;17.40;98.00;;;;;;5052211;28;20819;-72
2022/09/03 03:11:30;;;;;;;2.20;1.77;;;17.40;98.00;;;;;;5051717;28;20492;-71
2022/09/03 03:13:58;;;;;;;2.70;1.90;;;17.40;98.00;;;;;;5051761;28;20494;-71
2022/09/03 03:16:25;;;;;;;3.77;1.80;;;17.40;98.00;;;;;;5052032;28;20461;-72
2022/09/03 03:18:53;;;;;;;1.90;1.60;;;17.40;98.00;;;;;;5034504;28;20458;-72
2022/09/03 03:21:20;;;;;;;2.73;1.90;;;17.40;98.00;;;;;;5034189;28;20457;-71
2022/09/03 03:23:47;;;;;;;2.00;1.67;;;17.50;98.00;;;;;;5051738;28;20450;-72
2022/09/03 03:26:18;;;;;;;4.10;1.90;;;17.50;98.00;;;;;;5051614;28;20472;-72
2022/09/03 03:28:47;;;;;;;2.60;2.00;;;17.50;98.00;;;;;;5051668;28;20519;-73
2022/09/03 03:31:17;;;;;;;2.27;1.73;;;17.50;98.00;;;;;;5051411;28;21000;-72
2022/09/03 03:33:44;;;;;;;2.60;1.93;;;17.50;98.00;;;;;;5051915;28;20818;-71
2022/09/03 03:36:16;;;;;;;2.90;1.83;;;17.60;98.00;;;;;;5051302;28;20461;-72
2022/09/03 03:38:44;;;;;;;1.70;1.60;;;17.80;98.00;;;;;;5051507;28;20496;-72
2022/09/03 03:41:13;;;;;;;2.47;1.93;;;17.90;98.00;;;;;;5051197;28;20450;-71
2022/09/03 03:43:42;;;;;;;2.50;1.80;;;17.90;98.00;;;;;;5051427;28;20552;-71
2022/09/03 03:46:10;;;;;;;2.30;1.60;;;17.90;98.00;;;;;;5033589;28;20457;-72
2022/09/03 03:48:40;;;;;;;2.37;2.03;;;17.80;98.00;;;;;;5051345;28;20453;-72
2022/09/03 03:51:09;;;;;;;3.77;1.97;;;17.70;98.00;;;;;;5050956;28;20521;-70
2022/09/03 03:53:38;;;;;;;2.67;1.80;;;17.60;98.00;;;;;;5050973;28;21021;-71
2022/09/03 03:56:08;;;;;;;2.80;2.10;;;17.60;98.00;;;;;;5051030;28;20458;-72
2022/09/03 03:58:36;;;;;;;2.60;1.87;;;17.50;98.00;;;;;;5051261;28;20461;-71
2022/09/03 04:01:09;;;;;;;2.67;2.10;;;17.50;98.00;;;;;;5051050;28;20496;-72
2022/09/03 04:03:37;;;;;;;2.23;1.90;;;17.50;98.00;;;;;;5051129;28;20496;-72
2022/09/03 04:06:07;;;;;;;3.13;2.13;;;17.50;98.00;;;;;;5033386;28;20814;-71
2022/09/03 04:08:35;;;;;;;3.67;2.00;;;17.50;98.00;;;;;;5033460;28;20462;-72
2022/09/03 04:11:04;;;;;;;2.97;2.10;;;17.60;98.00;;;;;;5051012;28;20481;-71
2022/09/03 04:13:33;;;;;;;2.87;1.80;;;17.60;98.00;;;;;;5051192;28;20952;-73
2022/09/03 04:16:07;;;;;;;4.20;2.50;;;17.70;98.00;;;;;;5051243;28;20460;-72
2022/09/03 04:18:35;;;;;;;1.77;1.67;;;17.60;98.00;;;;;;5051240;28;20854;-72
2022/09/03 04:21:04;;;;;;;2.50;2.00;;;17.70;98.00;;;;;;5050813;28;20464;-71
2022/09/03 04:23:32;;;;;;;3.50;2.20;;;17.60;98.00;;;;;;5051026;28;20449;-72
2022/09/03 04:25:59;;;;;;;3.20;1.90;;;17.50;98.00;;;;;;5050703;28;20456;-71
2022/09/03 04:28:28;;;;;;;3.10;2.20;;;17.50;98.00;;;;;;5051112;28;20458;-71
2022/09/03 04:31:01;;;;;;;2.83;2.07;;;17.50;98.00;;;;;;5050646;28;20482;-73
2022/09/03 04:33:29;;;;;;;2.73;2.00;;;17.50;98.00;;;;;;5051014;28;20458;-71
2022/09/03 04:36:05;;;;;;;1.80;1.70;;;17.50;98.00;;;;;;5050691;28;20460;-72
2022/09/03 04:38:34;;;;;;;3.50;2.10;;;17.50;98.00;;;;;;5050702;28;20453;-71
2022/09/03 04:41:02;;;;;;;3.60;2.20;;;17.40;98.00;;;;;;5032836;28;20504;-72
2022/09/03 04:43:30;;;;;;;2.80;1.80;;;17.50;98.00;;;;;;5050693;28;20503;-72
2022/09/03 04:45:58;;;;;;;4.23;2.20;;;17.60;98.00;;;;;;5050559;28;20463;-72
2022/09/03 04:48:26;;;;;;;3.13;2.10;;;17.50;98.00;;;;;;5050767;28;20527;-72
2022/09/03 04:50:54;;;;;;;2.73;2.00;;;17.60;98.00;;;;;;5050414;28;20488;-71
2022/09/03 04:53:23;;;;;;;2.43;1.73;;;17.60;98.00;;;;;;5050831;28;20549;-71
2022/09/03 04:55:50;;;;;;;2.63;1.80;;;17.60;98.00;;;;;;5050549;28;20445;-71
2022/09/03 04:58:18;;;;;;;2.93;2.07;;;17.50;98.00;;;;;;5033173;28;20461;-72
2022/09/03 05:00:45;;;;;;;3.77;2.20;;;17.60;98.00;;;;;;5050630;28;20457;-71
2022/09/03 05:03:12;;;;;;;2.60;1.70;;;17.80;98.00;;;;;;5050458;28;20450;-71
2022/09/03 05:05:39;;;;;;;2.80;1.73;;;17.70;98.00;;;;;;5051705;28;20465;-73
2022/09/03 05:08:06;;;;;;;1.97;1.83;;;17.70;98.00;;;;;;5054457;28;20838;-71
2022/09/03 05:10:34;;;;;;;3.30;2.00;;;17.70;98.00;;;;;;5054367;28;20576;-72
2022/09/03 05:13:04;;;;;;;4.13;2.13;;;17.70;98.00;;;;;;5054111;28;20465;-71
2022/09/03 05:15:33;;;;;;;3.00;1.87;;;17.60;98.00;;;;;;5053905;28;20466;-71
2022/09/03 05:18:01;;;;;;;2.27;1.70;;;17.70;98.00;;;;;;5053887;28;20465;-72
2022/09/03 05:20:29;;;;;;;3.00;2.30;;;17.70;98.00;;;;;;5036164;28;20461;-72
2022/09/03 05:22:57;;;;;;;2.73;2.10;;;17.70;98.00;;;;;;5053868;28;20477;-71
2022/09/03 05:25:24;;;;;;;2.23;1.80;;;17.80;98.00;;;;;;5054045;28;20465;-71
2022/09/03 05:27:53;;;;;;;2.13;1.67;;;17.80;98.00;;;;;;5053861;28;20470;-72
2022/09/03 05:30:22;;;;;;;3.27;2.20;;;17.80;98.00;;;;;;5053677;28;20789;-71
2022/09/03 05:32:49;;;;;;;2.43;1.90;;;17.80;98.00;;;;;;5053644;28;20450;-70
2022/09/03 05:35:16;;;;;;;2.27;1.93;;;17.80;98.00;;;;;;5053920;28;20459;-72
2022/09/03 05:37:43;;;;;;;6.40;2.20;;;17.80;98.00;;;;;;5053889;28;20449;-72
2022/09/03 05:40:11;;;;;;;2.30;2.00;;;17.80;98.00;;;;;;5053597;28;20461;-71
2022/09/03 05:42:38;;;;;;;3.27;2.07;;;17.70;98.00;;;;;;5053669;28;20453;-72
2022/09/03 05:45:09;;;;;;;2.63;1.93;;;17.80;98.00;;;;;;5053079;28;20823;-71
2022/09/03 05:47:38;;;;;;;2.63;1.87;;;17.70;98.00;;;;;;5053665;28;20511;-72
2022/09/03 05:50:07;;;;;;;3.00;1.90;;;17.70;98.00;;;;;;5053495;28;20465;-71
2022/09/03 05:52:35;;;;;;;6.10;1.90;;;17.80;98.00;;;;;;5053174;28;20482;-72
2022/09/03 05:55:02;;;;;;;2.57;1.90;;;18.00;98.00;;;;;;5035391;28;20575;-73
2022/09/03 05:57:30;;;;;;;2.83;2.23;;;17.90;98.00;;;;;;5053231;28;20466;-71
2022/09/03 06:00:19;;;;;;;2.10;1.73;;;17.90;98.00;;;;;;5036781;28;20450;-71
2022/09/03 06:02:50;;;;;;;4.07;1.90;;;17.90;98.00;;;;;;5053546;28;20472;-72
2022/09/03 06:05:18;;;;;;;3.43;2.00;;;17.90;98.00;;;;;;5053227;28;20458;-73
2022/09/03 06:07:48;;;;;;;3.00;2.20;;;18.00;98.00;;;;;;5053074;28;20458;-72
2022/09/03 06:10:16;;;;;;;8.30;3.10;;;18.10;98.00;;;;;;5053091;28;20458;-72
2022/09/03 06:12:48;;;;;;;6.97;3.00;;;18.20;98.00;;;;;;5053167;28;20504;-72
2022/09/03 06:15:15;;;;;;;3.00;2.10;;;18.10;98.00;;;;;;5053292;28;20877;-71
2022/09/03 06:17:44;;;;;;;3.10;2.27;;;18.10;98.00;;;;;;5035015;28;20457;-71
2022/09/03 06:20:15;;;;;;;3.00;2.00;;;18.40;98.00;;;;;;5052903;28;20454;-72
2022/09/03 06:22:42;;;;;;;2.93;2.10;;;18.40;98.00;;;;;;5035527;28;20457;-71
2022/09/03 06:25:10;;;;;;;2.43;1.90;;;18.50;98.00;;;;;;5053427;28;20465;-73
2022/09/03 06:27:37;;;;;;;2.50;1.80;;;18.60;98.00;;;;;;5053491;28;20454;-72
2022/09/03 06:30:06;;;;;;;2.70;2.07;;;18.50;98.00;;;;;;5035322;28;20849;-73
2022/09/03 06:32:34;;;;;;;2.50;1.77;;;18.50;98.00;;;;;;5053194;28;20505;-73
2022/09/03 06:35:03;;;;;;;2.33;1.97;;;18.60;98.00;;;;;;5053153;28;20454;-73
2022/09/03 06:37:31;;;;;;;4.03;2.30;;;18.50;98.00;;;;;;5053202;28;20454;-73
2022/09/03 06:39:58;;;;;;;2.47;2.00;;;18.60;98.00;;;;;;5053191;28;20446;-74
2022/09/03 06:42:25;;;;;;;3.00;2.37;;;18.60;98.00;;;;;;5053341;28;20458;-73
2022/09/03 06:44:52;;;;;;;3.40;2.30;;;18.60;98.00;;;;;;5052912;28;20970;-74
2022/09/03 06:47:20;;;;;;;2.40;2.10;;;18.60;98.00;;;;;;5052817;28;20473;-74
2022/09/03 06:49:48;;;;;;;4.00;2.10;;;18.70;98.00;;;;;;5053230;28;20453;-73
2022/09/03 06:52:16;;;;;;;4.50;2.00;;;18.70;98.00;;;;;;5035258;28;20553;-74
2022/09/03 06:54:44;;;;;;;3.97;2.30;;;18.70;98.00;;;;;;5052932;28;20515;-74
2022/09/03 06:57:11;;;;;;;2.23;1.70;;;18.80;98.00;;;;;;5034543;28;20464;-74
2022/09/03 06:59:38;;;;;;;2.40;2.00;;;18.90;98.00;;;;;;5052884;28;20481;-74
2022/09/03 07:02:06;;;;;;;2.80;2.00;;;18.90;98.00;;;;;;5052514;28;20450;-75
2022/09/03 07:04:33;;;;;;;3.10;2.33;;;19.00;98.00;;;;;;5052833;28;20453;-73
2022/09/03 07:07:01;;;;;;;2.33;1.80;;;19.10;98.00;;;;;;5052903;28;20454;-74
2022/09/03 07:09:31;;;;;;;3.53;2.10;;;19.30;98.00;;;;;;5035445;28;20529;-74
2022/09/03 07:11:58;;;;;;;3.40;2.23;;;19.30;98.00;;;;;;5052741;28;20992;-73
2022/09/03 07:14:25;;;;;;;3.60;2.10;;;19.40;98.00;;;;;;5052654;28;20938;-74
2022/09/03 07:16:52;;;;;;;3.10;2.23;;;19.40;98.00;;;;;;5052537;28;20445;-74
2022/09/03 07:19:19;;;;;;;3.20;2.30;;;19.40;98.00;;;;;;5052216;28;20446;-74
2022/09/03 07:21:46;;;;;;;2.50;1.90;;;19.40;98.00;;;;;;5052498;28;20458;-73
2022/09/03 07:24:14;;;;;;;3.33;2.07;;;19.50;98.00;;;;;;5050285;28;20523;-74
2022/09/03 07:26:56;;;;;;;2.43;2.17;;;19.60;98.00;;;;;;5044370;28;20446;-73
2022/09/03 07:29:24;;;;;;;5.93;1.97;;;19.60;98.00;;;;;;5071448;28;20456;-74
2022/09/03 07:31:51;;;;;;;2.90;2.00;;;19.50;98.00;;;;;;5071798;28;20487;-72
2022/09/03 07:34:19;;;;;;;3.23;2.30;;;19.50;98.00;;;;;;5072307;28;20856;-73
2022/09/03 07:36:49;;;;;;;2.20;1.83;;;19.60;98.00;;;;;;5072149;28;20453;-73
2022/09/03 07:39:17;;;;;;;3.73;2.10;;;19.70;98.00;;;;;;5072209;28;20464;-74
2022/09/03 07:41:46;;;;;;;3.60;2.27;;;19.70;98.00;;;;;;5071809;28;20456;-73
2022/09/03 07:44:14;;;;;;;2.90;2.13;;;19.70;98.00;;;;;;5071823;28;20462;-74
2022/09/03 07:46:44;;;;;;;2.90;1.93;;;19.60;98.00;;;;;;5071933;28;20469;-73
2022/09/03 07:49:11;;;;;;;4.00;2.43;;;19.60;98.00;;;;;;5071904;28;20459;-74
2022/09/03 07:51:39;;;;;;;3.40;2.20;;;19.60;98.00;;;;;;5071641;28;20481;-74
2022/09/03 07:54:09;;;;;;;3.80;2.23;;;19.60;98.00;;;;;;5071884;28;20933;-73
2022/09/03 07:56:38;;;;;;;3.63;2.03;;;19.50;98.00;;;;;;5070978;28;20485;-74
2022/09/03 07:59:07;;;;;;;4.20;2.67;;;19.50;98.00;;;;;;5071529;28;20465;-73
2022/09/03 08:01:35;;;;;;;3.03;2.00;;;19.60;98.00;;;;;;5071957;28;20461;-75
2022/09/03 08:04:05;;;;;;;2.57;1.87;;;19.70;98.00;;;;;;5071834;28;20456;-74
2022/09/03 08:06:33;;;;;;;2.90;2.20;;;19.80;98.00;;;;;;5071919;28;20448;-73
2022/09/03 08:09:04;;;;;;;3.60;2.23;;;19.90;98.00;;;;;;5071784;28;20535;-74
2022/09/03 08:11:32;;;;;;;4.60;2.17;;;19.90;98.00;;;;;;5071835;28;20490;-75
2022/09/03 08:14:01;;;;;;;3.73;2.43;;;20.10;98.00;;;;;;5072006;28;20472;-74
2022/09/03 08:16:31;;;;;;;3.77;2.57;;;20.20;98.00;;;;;;5071655;28;20461;-74
2022/09/03 08:18:58;;;;;;;3.10;2.33;;;20.20;98.00;;;;;;5072122;28;20448;-74
2022/09/03 08:21:26;;;;;;;2.73;2.10;;;20.30;98.00;;;;;;5071637;28;20457;-74
2022/09/03 08:24:01;;;;;;;2.67;1.90;;;20.40;98.00;;;;;;5054319;28;20461;-74
2022/09/03 08:26:29;;;;;;;2.43;2.30;;;20.50;98.00;;;;;;5071386;28;20456;-74
2022/09/03 08:28:57;;;;;;;2.60;2.10;;;20.60;98.00;;;;;;5071495;28;20967;-74
2022/09/03 08:31:26;;;;;;;3.83;2.30;;;20.80;98.00;;;;;;5071381;28;20472;-74
2022/09/03 08:33:59;;;;;;;2.50;2.13;;;20.90;98.00;;;;;;5071415;28;20456;-74
2022/09/03 08:36:29;;;;;;;2.53;2.00;;;21.00;98.00;;;;;;5071464;28;20468;-73
2022/09/03 08:38:57;;;;;;;3.20;2.10;;;21.10;98.00;;;;;;5071380;28;20453;-74
2022/09/03 08:41:29;;;;;;;3.70;2.30;;;21.20;98.00;;;;;;5056155;28;20468;-74
2022/09/03 08:44:10;;;;;;;4.97;2.73;;;21.20;98.00;;;;;;5075238;28;20452;-73
2022/09/03 08:46:47;;;;;;;3.47;2.30;;;21.30;98.00;;;;;;5075404;28;20532;-73
2022/09/03 08:49:20;;;;;;;3.07;2.13;;;21.50;98.00;;;;;;5075064;28;20454;-74
2022/09/03 08:51:49;;;;;;;3.50;2.43;;;21.60;98.00;;;;;;5075069;28;20473;-72
2022/09/03 08:54:18;;;;;;;3.13;2.00;;;21.60;98.00;;;;;;5075272;28;20820;-74
2022/09/03 08:56:47;;;;;;;3.97;2.33;;;21.70;98.00;;;;;;5075224;28;20476;-75
2022/09/03 08:59:14;;;;;;;4.07;2.20;;;21.80;98.00;;;;;;5057283;28;20453;-76
2022/09/03 09:02:03;;;;;;;3.30;2.40;;;21.90;98.00;;;;;;5075081;28;20464;-74
2022/09/03 09:04:48;;;;;;;3.17;2.33;;;21.90;98.00;;;;;;5059830;28;20539;-75
2022/09/03 09:07:23;;;;;;;4.07;2.67;;;21.80;98.00;;;;;;5075144;28;20465;-76
2022/09/03 09:09:59;;;;;;;3.90;2.70;;;21.70;98.00;;;;;;5075208;28;20463;-78
2022/09/03 09:12:35;;;;;;;3.87;2.30;;;21.70;98.00;;;;;;5074991;28;20833;-76
2022/09/03 09:15:13;;;;;;;3.80;2.50;;;21.90;98.00;;;;;;5075335;28;20457;-76
2022/09/03 09:17:56;;;;;;;3.07;2.20;;;22.30;98.00;;;;;;5074501;28;20503;-76
2022/09/03 09:20:33;;;;;;;2.60;2.13;;;22.60;98.00;;;;;;5074985;28;20947;-77
2022/09/03 09:23:05;;;;;;;5.00;2.80;;;22.90;98.00;;;;;;5075169;28;20453;-74
2022/09/03 09:25:38;;;;;;;3.23;2.60;;;23.20;98.00;;;;;;5074695;28;20522;-76
2022/09/03 09:28:16;;;;;;;2.57;2.07;;;23.50;98.00;;;;;;5074453;28;20870;-69
2022/09/03 09:30:47;;;;;;;3.37;2.60;;;23.90;98.00;;;;;;5074475;28;20452;-69
2022/09/03 09:33:14;;;;;;;2.37;2.00;;;24.10;96.70;;;;;;5056255;28;20491;-70
2022/09/03 09:35:45;;;;;;;2.40;2.20;;;24.30;97.20;;;;;;5074414;28;20449;-70
2022/09/03 09:38:13;;;;;;;3.63;2.30;;;24.40;96.40;;;;;;5056389;28;20452;-71
2022/09/03 09:40:42;;;;;;;3.97;2.20;;;24.30;96.80;;;;;;5074135;28;20460;-72
2022/09/03 09:43:12;;;;;;;3.23;2.20;;;24.40;95.50;;;;;;5074340;28;20453;-71
2022/09/03 09:45:41;;;;;;;3.67;2.70;;;24.40;95.20;;;;;;5074369;28;20934;-71
2022/09/03 09:48:22;;;;;;;3.30;2.30;;;24.10;95.30;;;;;;5074084;28;20804;-70
2022/09/03 09:51:03;;;;;;;2.73;2.47;;;24.10;96.00;;;;;;5073338;28;20456;-70
2022/09/03 09:53:33;;;;;;;4.83;2.30;;;24.10;96.70;;;;;;5073932;28;20496;-70
2022/09/03 09:56:01;;;;;;;2.73;2.23;;;24.10;95.80;;;;;;5074081;28;20457;-71
2022/09/03 09:58:31;;;;;;;5.00;2.60;;;24.10;95.60;;;;;;5073909;28;20520;-71
2022/09/03 10:01:03;;;;;;;2.67;2.40;;;24.00;95.10;;;;;;5074008;28;20461;-70
2022/09/03 10:03:34;;;;;;;2.57;2.10;;;24.00;96.40;;;;;;5073896;28;20503;-70
2022/09/03 10:09:05;;;;;;;4.90;2.47;;;24.30;95.40;;;;;;5074106;28;20978;-71
2022/09/03 10:11:39;;;;;;;3.50;2.40;;;24.60;96.70;;;;;;5073806;28;20461;-70
2022/09/03 10:14:13;;;;;;;4.20;2.80;;;24.70;97.80;;;;;;5073665;28;20503;-71
2022/09/03 10:16:47;;;;;;;3.50;2.23;;;24.60;98.00;;;;;;5074039;28;20510;-71
2022/09/03 10:19:18;;;;;;;3.53;2.70;;;24.60;98.00;;;;;;5073827;28;20871;-71
2022/09/03 10:21:54;;;;;;;3.23;2.13;;;24.70;96.10;;;;;;5076626;28;20457;-71
2022/09/03 10:24:39;;;;;;;4.30;2.77;;;24.80;96.00;;;;;;5074206;28;20502;-71
2022/09/03 10:27:11;;;;;;;3.23;2.50;;;25.00;95.90;;;;;;5073552;28;20502;-71
2022/09/03 10:29:40;;;;;;;3.00;2.20;;;25.30;94.40;;;;;;5073419;28;20453;-71
2022/09/03 10:32:24;;;;;;;3.40;2.17;;;25.50;93.60;;;;;;5073173;28;20492;-71
2022/09/03 10:35:03;;;;;;;2.97;2.10;;;25.70;92.60;;;;;;5073247;28;20503;-71
2022/09/03 10:37:39;;;;;;;3.63;2.50;;;25.80;92.00;;;;;;5073269;28;20460;-71
2022/09/03 10:40:29;;;;;;;3.13;2.40;;;25.60;92.40;;;;;;5073072;28;20480;-70
2022/09/03 10:43:09;;;;;;;2.43;2.10;;;25.60;92.90;;;;;;5072895;28;20449;-70
2022/09/03 10:45:42;;;;;;;3.17;2.20;;;25.50;92.80;;;;;;5073092;28;20503;-71
2022/09/03 10:48:28;;;;;;;2.97;2.43;;;25.50;92.30;;;;;;5072925;28;20453;-71
2022/09/03 10:51:01;;;;;;;4.47;2.87;;;25.50;93.10;;;;;;5057203;28;20957;-71
2022/09/03 10:53:41;;;;;;;3.40;2.40;;;25.30;91.50;;;;;;5072743;28;20614;-71
2022/09/03 10:56:16;;;;;;;3.57;2.00;;;25.00;92.80;;;;;;5072807;28;20453;-70
2022/09/03 10:59:09;;;;;;;4.23;2.70;;;24.90;94.10;;;;;;5055571;28;20452;-71
2022/09/03 11:01:47;;;;;;;2.70;2.20;;;24.80;93.80;;;;;;5055101;28;20952;-71
2022/09/03 11:04:25;;;;;;;4.20;2.53;;;24.90;93.90;;;;;;5071834;28;20452;-70
2022/09/03 11:06:55;;;;;;;4.00;2.60;;;24.90;93.90;;;;;;5072825;28;20452;-71
2022/09/03 11:09:33;;;;;;;3.40;2.40;;;24.90;94.00;;;;;;5054789;28;20457;-70
2022/09/03 11:12:06;;;;;;;3.43;2.70;;;24.70;93.90;;;;;;5072629;28;20453;-70
2022/09/03 11:14:38;;;;;;;3.77;2.50;;;24.40;94.30;;;;;;5072547;28;20536;-70
2022/09/03 11:17:10;;;;;;;3.80;2.47;;;24.50;94.80;;;;;;5054760;28;20472;-70
2022/09/03 11:19:47;;;;;;;3.13;2.10;;;24.50;94.30;;;;;;5072685;28;20453;-70
2022/09/03 11:22:17;;;;;;;4.27;2.30;;;24.70;94.20;;;;;;5072523;28;20460;-70
2022/09/03 11:24:52;;;;;;;4.33;2.60;;;24.90;94.40;;;;;;5072267;28;20845;-70
2022/09/03 11:27:30;;;;;;;4.33;2.33;;;25.00;94.00;;;;;;5072348;28;20456;-70
2022/09/03 11:30:02;;;;;;;5.20;2.50;;;25.00;93.50;;;;;;5072002;28;20471;-70
2022/09/03 11:32:41;;;;;;;2.93;2.27;;;25.10;93.80;;;;;;5054968;28;20575;-70
2022/09/03 11:35:15;;;;;;;4.00;2.33;;;25.10;93.20;;;;;;5071919;28;20472;-70
2022/09/03 11:37:52;;;;;;;3.63;2.30;;;25.00;94.30;;;;;;5072020;28;20459;-70
2022/09/03 11:40:28;;;;;;;3.37;2.20;;;25.00;93.10;;;;;;5072184;28;20452;-70
2022/09/03 11:43:07;;;;;;;3.80;2.83;;;25.00;92.90;;;;;;5071901;28;20525;-70
2022/09/03 11:45:36;;;;;;;3.73;2.60;;;24.80;95.20;;;;;;5072255;28;20460;-69
2022/09/03 11:48:21;;;;;;;2.57;2.20;;;24.50;94.20;;;;;;5071790;28;20452;-69
2022/09/03 11:50:55;;;;;;;3.90;2.70;;;24.30;94.60;;;;;;5071925;28;20959;-70
2022/09/03 11:53:27;;;;;;;4.73;2.57;;;24.20;95.40;;;;;;5071859;28;20484;-70
2022/09/03 11:55:59;;;;;;;4.07;2.73;;;24.20;96.30;;;;;;5063509;28;20450;-70
2022/09/03 11:58:31;;;;;;;4.27;2.60;;;24.20;97.40;;;;;;5051712;28;20944;-70
2022/09/03 12:01:00;;;;;;;3.63;2.40;;;24.30;96.30;;;;;;5034839;28;20519;-69
2022/09/03 12:03:37;;;;;;;5.57;2.50;;;24.10;96.50;;;;;;5034289;28;20523;-75
2022/09/03 12:11:29;;;;;;;3.40;2.37;;;23.90;97.70;;;;;;5050502;28;20466;-74
2022/09/03 12:14:03;;;;;;;3.60;2.53;;;23.80;96.90;;;;;;5051734;28;20917;-70
2022/09/03 12:17:00;;;;;;;2.63;2.20;;;23.70;97.60;;;;;;5056951;28;20466;-73
2022/09/03 12:19:37;;;;;;;4.00;2.50;;;23.60;98.00;;;;;;5037973;28;20953;-73
2022/09/03 12:22:05;;;;;;;3.83;2.60;;;23.60;97.80;;;;;;5019850;28;20488;-73
2022/09/03 12:24:34;;;;;;;4.00;2.83;;;23.50;98.00;;;;;;5037955;28;20533;-73
2022/09/03 12:27:04;;;;;;;3.53;2.30;;;23.40;98.00;;;;;;5037159;28;20516;-73
2022/09/03 12:29:40;;;;;;;2.80;2.13;;;23.40;98.00;;;;;;5037699;28;20466;-73
2022/09/03 12:32:11;;;;;;;3.90;2.50;;;23.40;98.00;;;;;;5038007;28;20461;-72
2022/09/03 12:34:38;;;;;;;2.50;1.90;;;23.30;98.00;;;;;;5038215;28;20486;-72
2022/09/03 12:37:20;;;;;;;4.10;2.50;;;23.20;98.00;;;;;;5038060;28;20550;-72
2022/09/03 12:39:51;;;;;;;3.23;2.33;;;23.10;98.00;;;;;;5037762;28;20462;-72
2022/09/03 12:42:25;;;;;;;3.47;2.37;;;23.00;98.00;;;;;;5038090;28;20455;-73
2022/09/03 12:44:52;;;;;;;3.03;2.17;;;22.90;98.00;;;;;;5037834;28;20465;-73
2022/09/03 12:47:20;;;;;;;2.20;1.80;;;22.70;98.00;;;;;;5037413;28;20593;-73
2022/09/03 12:49:50;;;;;;;3.60;1.90;;;22.40;98.00;;;;;;5020199;28;20473;-74
2022/09/03 12:52:20;;;;;;;2.53;1.63;;;22.10;98.00;;;;;;5037803;28;20818;-74
2022/09/03 12:54:53;;;;;;;1.87;1.70;;;22.00;98.00;;;;;;5038108;28;20453;-73
2022/09/03 12:57:26;;;;;;;1.47;1.30;;;21.70;98.00;;;;;;5038444;28;20464;-72
2022/09/03 12:59:58;;;;;;;3.00;1.40;;;21.40;98.00;;;;;;5038642;28;20470;-73
2022/09/03 13:02:32;;;;;;;3.00;1.50;;;20.80;98.00;;;;;;5038816;28;20951;-73
2022/09/03 13:05:04;;;;;;;1.70;1.50;;;20.60;98.00;;;;;;5038484;28;20469;-73
2022/09/03 13:07:37;;;;;;;1.60;1.30;;;20.50;98.00;;;;;;5038615;28;20462;-73
2022/09/03 13:10:08;;;;;;;1.83;1.40;;;20.40;98.00;;;;;;5038091;28;20505;-72
2022/09/03 13:12:46;;;;;;;3.10;1.50;;;20.30;98.00;;;;;;5038140;28;20458;-72
2022/09/03 13:15:22;;;;;;;1.40;1.30;;;20.10;98.00;;;;;;5037806;28;20495;-73
2022/09/03 13:18:10;;;;;;;2.50;1.43;;;20.00;98.00;;;;;;5058060;28;20469;-73
2022/09/03 13:20:47;;;;;;;1.77;1.50;;;19.80;98.00;;;;;;5040509;28;20486;-73
2022/09/03 13:23:44;;;;;;;2.23;1.50;;;19.60;98.00;;;;;;5057645;28;20461;-73